Time;durP1;ratioP1;P1;durP2;ratioP2;P2;SDS_P1;SDS_P2;PMS_P1;PMS_P2;Temp;Humidity;BMP_temperature;BMP_pressure;BME280_temperature;BME280_humidity;BME280_pressure;Samples;Min_cycle;Max_cycle;Signal;HPM_P1;HPM_P2
2020/12/01 00:01:17;;;;;;;9.02;5.25;;;3.90;99.90;;;;;;5084152;28;20099;-75
2020/12/01 00:03:43;;;;;;;13.32;4.97;;;3.90;99.90;;;;;;5083586;28;20045;-75
2020/12/01 00:06:09;;;;;;;11.18;5.35;;;3.90;99.90;;;;;;5083206;28;20028;-75
2020/12/01 00:08:36;;;;;;;9.73;4.95;;;3.90;99.90;;;;;;5085145;28;20089;-75
2020/12/01 00:11:02;;;;;;;9.27;4.75;;;4.00;99.90;;;;;;5084720;28;20013;-76
2020/12/01 00:13:27;;;;;;;7.70;4.50;;;3.90;99.90;;;;;;5083596;28;20101;-74
2020/12/01 00:15:53;;;;;;;6.35;4.47;;;3.90;99.90;;;;;;5083289;28;20032;-75
2020/12/01 00:18:18;;;;;;;11.65;5.15;;;3.90;99.90;;;;;;5083417;28;20055;-76
2020/12/01 00:20:44;;;;;;;9.48;5.45;;;4.00;99.90;;;;;;5083387;28;20039;-73
2020/12/01 00:23:09;;;;;;;19.15;4.78;;;3.90;99.90;;;;;;5083209;28;20035;-74
2020/12/01 00:25:35;;;;;;;8.10;3.75;;;4.00;99.90;;;;;;5083372;28;20024;-73
2020/12/01 00:28:00;;;;;;;10.82;3.92;;;4.00;99.90;;;;;;5085055;28;20024;-73
2020/12/01 00:30:26;;;;;;;8.40;4.47;;;4.00;99.90;;;;;;5084913;28;20050;-74
2020/12/01 00:32:53;;;;;;;8.43;3.88;;;4.00;99.90;;;;;;5083214;28;20076;-73
2020/12/01 00:35:22;;;;;;;9.38;4.38;;;4.00;99.90;;;;;;5084596;28;20013;-74
2020/12/01 00:37:49;;;;;;;10.95;4.95;;;4.00;99.90;;;;;;5084402;28;20028;-75
2020/12/01 00:40:15;;;;;;;12.45;5.25;;;4.00;99.90;;;;;;5084532;28;20439;-75
2020/12/01 00:42:41;;;;;;;7.55;4.50;;;4.00;99.90;;;;;;5084479;28;20036;-75
2020/12/01 00:45:08;;;;;;;9.75;4.55;;;4.10;99.90;;;;;;5083494;28;20027;-75
2020/12/01 00:47:34;;;;;;;7.22;3.65;;;4.10;99.90;;;;;;5083275;28;20024;-74
2020/12/01 00:49:59;;;;;;;6.50;3.25;;;4.10;99.90;;;;;;5084735;28;20025;-75
2020/12/01 00:52:25;;;;;;;9.02;4.65;;;4.10;99.90;;;;;;5084314;28;20028;-74
2020/12/01 00:54:51;;;;;;;8.90;4.25;;;4.10;99.90;;;;;;5083050;28;20037;-74
2020/12/01 00:57:16;;;;;;;8.45;4.32;;;4.10;99.90;;;;;;5084343;28;20070;-74
2020/12/01 00:59:42;;;;;;;10.40;5.13;;;4.10;99.90;;;;;;5082866;28;20024;-74
2020/12/01 01:02:07;;;;;;;9.43;4.38;;;4.20;99.90;;;;;;5083958;28;20052;-74
2020/12/01 01:04:33;;;;;;;14.23;5.78;;;4.20;99.90;;;;;;5083105;28;20031;-73
2020/12/01 01:06:59;;;;;;;11.68;5.07;;;4.20;99.90;;;;;;5086399;28;20032;-75
2020/12/01 01:09:25;;;;;;;8.30;5.22;;;4.20;99.90;;;;;;5086642;28;20025;-74
2020/12/01 01:11:51;;;;;;;9.85;4.88;;;4.20;99.90;;;;;;5088015;28;20075;-74
2020/12/01 01:14:16;;;;;;;9.75;5.13;;;4.20;99.90;;;;;;5088152;28;20035;-74
2020/12/01 01:16:43;;;;;;;8.73;5.00;;;4.30;99.90;;;;;;5087898;28;20032;-75
2020/12/01 01:19:10;;;;;;;9.95;4.50;;;4.20;99.90;;;;;;5087811;28;20103;-74
2020/12/01 01:21:47;;;;;;;13.25;5.35;;;4.20;99.90;;;;;;5086714;28;20119;-75
2020/12/01 01:24:15;;;;;;;10.13;5.32;;;4.30;99.90;;;;;;5086251;28;20035;-74
2020/12/01 01:26:45;;;;;;;11.32;4.95;;;4.30;99.90;;;;;;5086191;28;20028;-73
2020/12/01 01:29:10;;;;;;;10.98;5.13;;;4.30;99.90;;;;;;5086405;28;20036;-75
2020/12/01 01:31:36;;;;;;;8.85;5.28;;;4.20;99.90;;;;;;5087699;28;20020;-74
2020/12/01 01:34:01;;;;;;;8.73;5.22;;;4.30;99.90;;;;;;5087564;28;20076;-74
2020/12/01 01:36:32;;;;;;;8.32;5.75;;;4.30;99.90;;;;;;5086493;28;20078;-75
2020/12/01 01:38:57;;;;;;;10.35;5.20;;;4.50;99.90;;;;;;5087719;28;20021;-74
2020/12/01 01:41:23;;;;;;;22.35;5.70;;;4.40;99.90;;;;;;5086090;28;20074;-75
2020/12/01 01:43:48;;;;;;;10.82;5.45;;;4.40;99.90;;;;;;5086009;28;20078;-74
2020/12/01 01:47:01;;;;;;;16.48;5.95;;;4.40;99.90;;;;;;5085912;28;20263;-75
2020/12/01 01:49:37;;;;;;;14.38;5.45;;;4.40;99.90;;;;;;5081463;28;20036;-73
2020/12/01 01:52:16;;;;;;;11.38;5.80;;;4.40;99.90;;;;;;5087243;28;20020;-74
2020/12/01 01:54:44;;;;;;;10.77;5.57;;;4.40;99.90;;;;;;5086953;28;20029;-73
2020/12/01 01:57:10;;;;;;;12.60;5.43;;;4.40;99.90;;;;;;5087114;28;20021;-73
2020/12/01 01:59:38;;;;;;;11.55;5.75;;;4.40;99.90;;;;;;5087107;28;20017;-76
2020/12/01 02:02:04;;;;;;;8.30;5.07;;;4.50;99.90;;;;;;5086642;28;20497;-74
2020/12/01 02:04:31;;;;;;;16.27;7.45;;;4.50;99.90;;;;;;5087592;28;20028;-76
2020/12/01 02:07:01;;;;;;;14.75;6.07;;;4.50;99.90;;;;;;5085915;28;20039;-73
2020/12/01 02:09:32;;;;;;;11.25;5.47;;;4.50;99.90;;;;;;5086972;28;20036;-75
2020/12/01 02:12:00;;;;;;;10.23;6.70;;;4.50;99.90;;;;;;5085617;28;20020;-75
2020/12/01 02:14:34;;;;;;;13.05;6.40;;;4.50;99.90;;;;;;5086820;28;20036;-74
2020/12/01 02:17:21;;;;;;;8.45;5.63;;;4.50;99.90;;;;;;5085326;28;20028;-76
2020/12/01 02:19:48;;;;;;;12.05;6.43;;;4.60;99.90;;;;;;5085337;28;20135;-74
2020/12/01 02:22:17;;;;;;;13.82;7.15;;;4.60;99.90;;;;;;5085031;28;20017;-73
2020/12/01 02:24:44;;;;;;;11.82;5.90;;;4.60;99.90;;;;;;5085043;28;20020;-73
2020/12/01 02:27:13;;;;;;;13.48;6.45;;;4.60;99.90;;;;;;5086508;28;20051;-73
2020/12/01 02:29:42;;;;;;;12.05;5.55;;;4.60;99.90;;;;;;5086408;28;20027;-75
2020/12/01 02:32:08;;;;;;;14.27;6.80;;;4.70;99.90;;;;;;5084744;28;20016;-76
2020/12/01 02:34:38;;;;;;;11.10;5.40;;;4.70;99.90;;;;;;5086092;28;20047;-74
2020/12/01 02:37:04;;;;;;;11.75;5.40;;;4.70;99.90;;;;;;5083950;28;20024;-76
2020/12/01 02:39:31;;;;;;;12.77;5.90;;;4.70;99.90;;;;;;5085998;28;20043;-75
2020/12/01 02:41:59;;;;;;;12.93;6.32;;;4.70;99.90;;;;;;5084940;28;20488;-74
2020/12/01 02:44:26;;;;;;;16.77;5.25;;;4.70;99.90;;;;;;5086035;28;20458;-74
2020/12/01 02:46:52;;;;;;;18.17;6.65;;;4.70;99.90;;;;;;5086087;28;20068;-75
2020/12/01 02:49:17;;;;;;;10.57;6.22;;;4.80;99.90;;;;;;5084393;28;20024;-74
2020/12/01 02:51:43;;;;;;;11.63;6.28;;;4.80;99.90;;;;;;5084574;28;20020;-74
2020/12/01 02:54:08;;;;;;;10.30;5.70;;;4.80;99.90;;;;;;5085730;28;20076;-74
2020/12/01 02:56:34;;;;;;;18.42;5.50;;;4.80;99.90;;;;;;5084499;28;20024;-74
2020/12/01 02:59:00;;;;;;;7.72;5.57;;;4.80;99.90;;;;;;5086093;28;20025;-73
2020/12/01 03:01:26;;;;;;;10.98;6.03;;;4.80;99.90;;;;;;5084523;28;20028;-74
2020/12/01 03:03:51;;;;;;;9.35;5.30;;;4.80;99.90;;;;;;5084274;28;20040;-73
2020/12/01 03:06:19;;;;;;;12.35;5.22;;;4.80;99.90;;;;;;5085352;28;20096;-73
2020/12/01 03:08:45;;;;;;;9.75;4.93;;;4.80;99.90;;;;;;5084239;28;20484;-74
2020/12/01 03:11:12;;;;;;;10.25;5.65;;;4.90;99.90;;;;;;5083341;28;20027;-72
2020/12/01 03:13:38;;;;;;;12.82;5.32;;;4.80;99.90;;;;;;5084956;28;20016;-75
2020/12/01 03:16:08;;;;;;;11.52;5.20;;;4.80;99.90;;;;;;5083609;28;20017;-75
2020/12/01 03:18:38;;;;;;;10.90;6.22;;;4.90;99.90;;;;;;5084843;28;20469;-75
2020/12/01 03:21:04;;;;;;;11.27;5.70;;;4.90;99.90;;;;;;5085137;28;20078;-75
2020/12/01 03:23:30;;;;;;;12.45;5.38;;;4.90;99.90;;;;;;5084100;28;20037;-76
2020/12/01 03:25:57;;;;;;;11.40;5.55;;;4.90;99.90;;;;;;5084097;28;20035;-75
2020/12/01 03:28:23;;;;;;;10.52;5.30;;;4.90;99.90;;;;;;5084668;28;20097;-74
2020/12/01 03:30:48;;;;;;;12.35;5.40;;;4.90;99.90;;;;;;5083798;28;20495;-75
2020/12/01 03:33:14;;;;;;;10.57;3.80;;;5.00;99.90;;;;;;5085086;28;20012;-75
2020/12/01 03:35:39;;;;;;;10.32;5.45;;;4.90;99.90;;;;;;5085232;28;20023;-74
2020/12/01 03:38:05;;;;;;;11.23;4.72;;;5.00;99.90;;;;;;5084028;28;20069;-74
2020/12/01 03:40:31;;;;;;;8.45;5.00;;;5.00;99.90;;;;;;5085359;28;20028;-76
2020/12/01 03:42:56;;;;;;;12.27;4.80;;;5.00;99.90;;;;;;5085342;28;20047;-74
2020/12/01 03:45:22;;;;;;;9.15;4.97;;;5.00;99.90;;;;;;5085080;28;20028;-75
2020/12/01 03:47:51;;;;;;;10.27;6.07;;;5.00;99.90;;;;;;5085114;28;20523;-74
2020/12/01 03:50:17;;;;;;;8.60;4.30;;;5.00;99.90;;;;;;5083683;28;20043;-74
2020/12/01 03:52:42;;;;;;;9.88;4.82;;;5.00;99.90;;;;;;5083630;28;20021;-74
2020/12/01 03:55:08;;;;;;;10.07;4.90;;;5.10;99.90;;;;;;5083540;28;20021;-74
2020/12/01 03:57:40;;;;;;;7.25;4.70;;;5.10;99.90;;;;;;5084999;28;20146;-74
2020/12/01 04:00:11;;;;;;;9.07;5.07;;;5.10;99.90;;;;;;5083813;28;20020;-74
2020/12/01 04:02:37;;;;;;;12.05;4.40;;;5.10;99.90;;;;;;5084949;28;20049;-75
2020/12/01 04:05:03;;;;;;;10.18;4.88;;;5.10;99.90;;;;;;5083671;28;20024;-76
2020/12/01 04:07:29;;;;;;;7.95;4.93;;;5.20;99.90;;;;;;5085287;28;20040;-75
2020/12/01 04:09:55;;;;;;;14.00;7.22;;;5.10;99.90;;;;;;5083516;28;20024;-76
2020/12/01 04:12:20;;;;;;;10.85;4.55;;;5.10;99.90;;;;;;5083460;28;20043;-73
2020/12/01 04:14:46;;;;;;;9.20;4.78;;;5.10;99.90;;;;;;5084760;28;20021;-75
2020/12/01 04:17:11;;;;;;;7.45;4.03;;;5.10;99.90;;;;;;5083639;28;20089;-75
2020/12/01 04:19:37;;;;;;;28.13;6.88;;;5.20;99.90;;;;;;5084852;28;20051;-74
2020/12/01 04:22:02;;;;;;;9.75;5.20;;;5.20;99.90;;;;;;5083487;28;20115;-76
2020/12/01 04:24:28;;;;;;;9.80;4.22;;;5.20;99.90;;;;;;5084749;28;20031;-75
2020/12/01 04:26:54;;;;;;;15.45;4.22;;;5.20;99.90;;;;;;5083404;28;20016;-74
2020/12/01 04:29:19;;;;;;;11.20;5.80;;;5.20;99.90;;;;;;5083312;28;20009;-74
2020/12/01 04:31:45;;;;;;;12.65;4.53;;;5.20;99.90;;;;;;5083439;28;20021;-74
2020/12/01 04:34:10;;;;;;;7.28;4.20;;;5.20;99.90;;;;;;5084603;28;20035;-77
2020/12/01 04:36:36;;;;;;;12.70;5.15;;;5.20;99.90;;;;;;5084789;28;20021;-76
2020/12/01 04:39:02;;;;;;;13.73;5.22;;;5.20;99.90;;;;;;5083545;28;20048;-74
2020/12/01 04:41:28;;;;;;;9.15;4.70;;;5.30;99.90;;;;;;5087408;28;20016;-75
2020/12/01 04:43:57;;;;;;;11.23;4.95;;;5.30;99.90;;;;;;5087011;28;20036;-77
2020/12/01 04:46:26;;;;;;;12.82;4.82;;;5.30;99.90;;;;;;5087153;28;20022;-75
2020/12/01 04:48:59;;;;;;;11.50;4.57;;;5.40;99.90;;;;;;5088292;28;20028;-75
2020/12/01 04:51:54;;;;;;;10.13;4.90;;;5.30;99.90;;;;;;5088400;28;20020;-75
2020/12/01 04:55:02;;;;;;;11.57;4.75;;;5.30;99.90;;;;;;5087027;28;20071;-75
2020/12/01 04:57:49;;;;;;;8.85;4.80;;;5.30;99.90;;;;;;5087324;28;20067;-74
2020/12/01 05:00:43;;;;;;;8.93;4.57;;;5.30;99.90;;;;;;5088143;28;20077;-76
2020/12/01 05:03:17;;;;;;;9.90;5.22;;;5.30;99.90;;;;;;5088041;28;20048;-76
2020/12/01 05:08:59;;;;;;;9.40;4.82;;;5.30;99.90;;;;;;5088112;28;20032;-75
2020/12/01 05:11:58;;;;;;;19.00;7.30;;;5.30;99.90;;;;;;5087386;28;20047;-74
2020/12/01 05:14:37;;;;;;;9.20;4.93;;;5.30;99.90;;;;;;5088265;28;20032;-75
2020/12/01 05:17:45;;;;;;;9.82;4.28;;;5.40;99.90;;;;;;5086637;28;20111;-76
2020/12/01 05:20:11;;;;;;;22.23;4.18;;;5.30;99.90;;;;;;5087657;28;20027;-76
2020/12/01 05:22:40;;;;;;;36.58;5.82;;;5.40;99.90;;;;;;5086312;28;20032;-76
2020/12/01 05:25:18;;;;;;;23.30;5.22;;;5.40;99.90;;;;;;5086241;28;20028;-76
2020/12/01 05:27:43;;;;;;;12.27;4.75;;;5.50;99.90;;;;;;5086343;28;20093;-75
2020/12/01 05:30:14;;;;;;;7.90;4.43;;;5.40;99.90;;;;;;5087909;28;20021;-74
2020/12/01 05:32:50;;;;;;;17.35;4.03;;;5.40;99.90;;;;;;5087551;28;20027;-75
2020/12/01 05:35:26;;;;;;;9.98;4.75;;;5.40;99.90;;;;;;5086282;28;20096;-75
2020/12/01 05:38:14;;;;;;;11.10;4.65;;;5.40;99.90;;;;;;5086152;28;20465;-75
2020/12/01 05:40:49;;;;;;;8.73;4.90;;;5.40;99.90;;;;;;5087301;28;20372;-75
2020/12/01 05:43:34;;;;;;;41.35;7.03;;;5.40;99.90;;;;;;5086026;28;20032;-76
2020/12/01 05:46:18;;;;;;;18.38;6.13;;;5.40;99.90;;;;;;5086352;28;20016;-77
2020/12/01 05:48:52;;;;;;;29.33;6.13;;;5.50;99.90;;;;;;5087472;28;20043;-76
2020/12/01 05:51:25;;;;;;;8.80;5.40;;;5.50;99.90;;;;;;5086309;28;20104;-76
2020/12/01 05:53:56;;;;;;;8.80;4.22;;;5.50;99.90;;;;;;5087105;28;20028;-75
2020/12/01 05:56:22;;;;;;;18.10;5.85;;;5.50;99.90;;;;;;5087051;28;20035;-76
2020/12/01 05:59:05;;;;;;;11.90;5.88;;;5.50;99.90;;;;;;5087121;28;20107;-76
2020/12/01 06:01:46;;;;;;;9.32;4.45;;;5.50;99.90;;;;;;5085585;28;20024;-79
2020/12/01 06:04:22;;;;;;;11.02;5.38;;;5.50;99.90;;;;;;5084174;28;20100;-77
2020/12/01 06:07:00;;;;;;;13.00;5.65;;;5.50;99.90;;;;;;5085537;28;20088;-78
2020/12/01 06:10:03;;;;;;;14.38;6.30;;;5.50;99.90;;;;;;5085188;28;20085;-76
2020/12/01 06:12:32;;;;;;;6.55;3.63;;;5.50;99.90;;;;;;5085560;28;20028;-77
2020/12/01 06:15:00;;;;;;;12.40;5.78;;;5.50;99.90;;;;;;5087018;28;20020;-76
2020/12/01 06:18:07;;;;;;;13.27;5.35;;;5.50;99.90;;;;;;5085483;28;20041;-77
2020/12/01 06:20:42;;;;;;;18.40;4.93;;;5.50;99.90;;;;;;5085204;28;20025;-77
2020/12/01 06:23:23;;;;;;;13.82;5.82;;;5.60;99.90;;;;;;5085305;28;20033;-77
2020/12/01 06:26:06;;;;;;;14.75;7.45;;;5.60;99.90;;;;;;5085212;28;20388;-76
2020/12/01 06:28:57;;;;;;;11.77;6.43;;;5.50;99.90;;;;;;5085454;28;20031;-78
2020/12/01 06:31:53;;;;;;;17.17;4.90;;;5.50;99.90;;;;;;5085034;28;20036;-76
2020/12/01 06:34:46;;;;;;;22.45;6.38;;;5.60;99.90;;;;;;5084913;28;20449;-78
2020/12/01 06:37:49;;;;;;;11.38;5.15;;;5.60;99.90;;;;;;5085020;28;20479;-78
2020/12/01 06:40:25;;;;;;;16.88;6.00;;;5.50;99.90;;;;;;5084704;28;20612;-78
2020/12/01 06:43:06;;;;;;;12.45;4.80;;;5.60;99.90;;;;;;5084689;28;20041;-78
2020/12/01 06:45:40;;;;;;;9.55;4.97;;;5.60;99.90;;;;;;5086746;28;20020;-77
2020/12/01 06:48:48;;;;;;;29.20;5.37;;;5.60;99.90;;;;;;5087522;28;20032;-79
2020/12/01 06:51:16;;;;;;;10.93;4.82;;;5.60;99.90;;;;;;5084595;28;20330;-77
2020/12/01 06:53:42;;;;;;;12.32;5.95;;;5.60;99.90;;;;;;5067720;28;20028;-78
2020/12/01 06:56:11;;;;;;;14.15;5.15;;;5.60;99.90;;;;;;5085454;28;20033;-76
2020/12/01 06:58:42;;;;;;;8.70;4.55;;;5.70;99.90;;;;;;5085399;28;20021;-78
2020/12/01 07:01:27;;;;;;;8.18;4.50;;;5.70;99.90;;;;;;5084961;28;20020;-77
2020/12/01 07:04:13;;;;;;;6.50;3.75;;;5.60;99.90;;;;;;5084095;28;20040;-78
2020/12/01 07:07:01;;;;;;;11.45;5.22;;;5.70;99.90;;;;;;5084833;28;20031;-80
2020/12/01 07:09:45;;;;;;;8.20;4.50;;;5.70;99.90;;;;;;5086685;28;20372;-80
2020/12/01 07:12:13;;;;;;;9.85;4.45;;;5.70;99.90;;;;;;5086684;28;20017;-78
2020/12/01 07:14:54;;;;;;;10.98;4.80;;;5.70;99.90;;;;;;5085367;28;20031;-79
2020/12/01 07:17:19;;;;;;;7.63;3.95;;;5.70;99.90;;;;;;5085499;28;20027;-77
2020/12/01 07:20:19;;;;;;;10.57;5.88;;;5.70;99.90;;;;;;5085028;28;20103;-77
2020/12/01 07:23:00;;;;;;;5.88;3.90;;;5.80;99.90;;;;;;5085786;28;20132;-78
2020/12/01 07:25:51;;;;;;;7.03;4.65;;;6.00;99.90;;;;;;5084873;28;20037;-77
2020/12/01 07:28:22;;;;;;;10.00;4.85;;;5.80;99.90;;;;;;5085265;28;20025;-78
2020/12/01 07:30:58;;;;;;;8.35;4.22;;;5.80;99.90;;;;;;5084296;28;20048;-76
2020/12/01 07:33:34;;;;;;;6.60;3.72;;;5.80;99.90;;;;;;5085055;28;20017;-77
2020/12/01 07:36:41;;;;;;;9.82;4.70;;;5.80;99.90;;;;;;5085486;28;20055;-77
2020/12/01 07:39:16;;;;;;;9.23;4.68;;;5.80;99.90;;;;;;5079890;28;20031;-78
2020/12/01 07:41:49;;;;;;;9.30;5.07;;;5.80;99.90;;;;;;5084785;28;20043;-78
2020/12/01 07:44:18;;;;;;;9.90;4.72;;;5.80;99.90;;;;;;5085914;28;20033;-78
2020/12/01 07:49:16;;;;;;;7.88;4.85;;;5.80;99.90;;;;;;5085461;28;20054;-78
2020/12/01 07:51:43;;;;;;;12.18;5.15;;;5.80;99.90;;;;;;5084187;28;20043;-80
2020/12/01 07:54:09;;;;;;;8.82;4.45;;;5.90;99.90;;;;;;5084920;28;20024;-77
2020/12/01 07:56:38;;;;;;;8.63;4.90;;;6.00;99.90;;;;;;5083282;28;20021;-77
2020/12/01 07:59:09;;;;;;;25.35;6.43;;;5.80;99.90;;;;;;5082310;28;20044;-76
2020/12/01 08:01:35;;;;;;;10.40;4.15;;;5.90;99.90;;;;;;5083143;28;20016;-78
2020/12/01 08:04:23;;;;;;;9.30;5.53;;;5.90;99.90;;;;;;5084241;28;20032;-80
2020/12/01 08:07:03;;;;;;;12.25;5.50;;;5.90;99.90;;;;;;5063567;28;20117;-78
2020/12/01 08:09:31;;;;;;;10.50;5.32;;;5.90;99.90;;;;;;5062100;28;20025;-79
2020/12/01 08:12:06;;;;;;;9.30;4.30;;;5.90;99.90;;;;;;5060698;28;20029;-80
2020/12/01 08:14:33;;;;;;;6.03;4.18;;;5.90;99.90;;;;;;5062661;28;20370;-78
2020/12/01 08:17:15;;;;;;;10.88;5.85;;;6.20;99.90;;;;;;5064064;28;20021;-78
2020/12/01 08:19:41;;;;;;;10.50;5.43;;;6.10;99.90;;;;;;5063574;28;20036;-79
2020/12/01 08:22:09;;;;;;;9.70;4.43;;;6.00;99.90;;;;;;5063076;28;20021;-77
2020/12/01 08:24:38;;;;;;;9.00;4.13;;;6.00;99.90;;;;;;5062848;28;20037;-78
2020/12/01 08:27:17;;;;;;;11.88;4.38;;;6.00;99.90;;;;;;5063064;28;20017;-78
2020/12/01 08:29:43;;;;;;;7.88;4.45;;;6.10;99.90;;;;;;5063371;28;20143;-76
2020/12/01 08:32:21;;;;;;;8.13;4.55;;;6.10;99.90;;;;;;5063109;28;20020;-76
2020/12/01 08:34:54;;;;;;;8.73;5.13;;;6.10;99.90;;;;;;5063599;28;20052;-78
2020/12/01 08:37:55;;;;;;;16.88;7.00;;;6.10;99.90;;;;;;5062794;28;20415;-79
2020/12/01 08:40:45;;;;;;;8.35;4.88;;;6.20;99.90;;;;;;5061883;28;21100;-77
2020/12/01 08:43:28;;;;;;;13.50;5.55;;;6.20;99.90;;;;;;5064583;28;20064;-77
2020/12/01 08:46:06;;;;;;;12.43;6.72;;;6.20;99.90;;;;;;5064088;28;20021;-76
2020/12/01 08:48:47;;;;;;;8.32;4.88;;;6.30;99.90;;;;;;5063002;28;20025;-79
2020/12/01 08:51:34;;;;;;;9.10;4.72;;;6.30;99.90;;;;;;5062724;28;20473;-78
2020/12/01 08:54:06;;;;;;;8.55;5.15;;;6.30;99.90;;;;;;5063453;28;20078;-78
2020/12/01 08:56:48;;;;;;;9.55;5.32;;;6.30;99.90;;;;;;5063748;28;20036;-79
2020/12/01 08:59:21;;;;;;;8.70;4.68;;;6.30;99.90;;;;;;5072917;28;20100;-78
2020/12/01 09:01:47;;;;;;;11.85;4.82;;;6.40;99.90;;;;;;5063603;28;20040;-77
2020/12/01 09:04:27;;;;;;;9.10;5.18;;;6.40;99.90;;;;;;5062826;28;20037;-77
2020/12/01 09:07:05;;;;;;;9.43;4.88;;;6.40;99.90;;;;;;5062776;28;20029;-77
2020/12/01 09:09:33;;;;;;;7.03;4.00;;;6.50;99.90;;;;;;5042110;28;20017;-79
2020/12/01 09:12:21;;;;;;;7.53;5.07;;;6.40;99.90;;;;;;5042838;28;20033;-78
2020/12/01 09:15:04;;;;;;;10.20;4.95;;;6.50;99.90;;;;;;5043217;28;20067;-79
2020/12/01 09:17:55;;;;;;;7.35;4.32;;;6.50;99.90;;;;;;5043006;28;20045;-79
2020/12/01 09:23:23;;;;;;;12.32;5.40;;;6.50;99.90;;;;;;5064267;28;20044;-79
2020/12/01 09:25:52;;;;;;;12.13;6.05;;;6.50;99.90;;;;;;5063316;28;20017;-78
2020/12/01 09:28:24;;;;;;;12.57;5.20;;;6.50;99.90;;;;;;5066315;28;20021;-77
2020/12/01 09:30:50;;;;;;;10.18;4.80;;;6.50;99.90;;;;;;5067443;28;20021;-76
2020/12/01 09:33:21;;;;;;;7.82;4.82;;;6.40;99.90;;;;;;5065757;28;20074;-78
2020/12/01 09:35:46;;;;;;;8.55;4.28;;;6.40;99.90;;;;;;5065593;28;20031;-80
2020/12/01 09:38:13;;;;;;;10.20;5.70;;;6.40;99.90;;;;;;5065906;28;20489;-79
2020/12/01 09:40:39;;;;;;;10.93;4.90;;;6.50;99.90;;;;;;5065537;28;20100;-78
2020/12/01 09:45:39;;;;;;;6.85;4.40;;;6.50;99.90;;;;;;5066709;28;20017;-81
2020/12/01 09:48:23;;;;;;;9.90;4.80;;;6.50;99.90;;;;;;5066993;28;20056;-81
2020/12/01 09:50:49;;;;;;;9.95;5.10;;;6.50;99.90;;;;;;5067376;28;20037;-80
2020/12/01 09:53:39;;;;;;;9.15;4.57;;;6.50;99.90;;;;;;5066268;28;20021;-81
2020/12/01 09:56:54;;;;;;;10.43;3.75;;;6.50;99.90;;;;;;5065663;28;20031;-81
2020/12/01 10:17:50;;;;;;;8.93;2.92;;;6.60;99.90;;;;;;5066839;28;20074;-81
2020/12/01 10:34:20;;;;;;;6.53;3.25;;;6.80;99.90;;;;;;5065037;28;20028;-80
2020/12/01 10:36:40;;;;;;;6.63;3.35;;;6.70;99.90;;;;;;5065607;28;20021;-79
2020/12/01 10:39:09;;;;;;;5.63;3.15;;;6.80;99.90;;;;;;5065483;28;20077;-79
2020/12/01 10:41:39;;;;;;;5.57;2.22;;;6.80;99.90;;;;;;5064750;28;20029;-81
2020/12/01 10:44:10;;;;;;;5.68;3.10;;;6.70;99.90;;;;;;5065402;28;20059;-78
2020/12/01 10:46:38;;;;;;;6.05;2.03;;;6.70;99.90;;;;;;5063506;28;20029;-79
2020/12/01 10:49:04;;;;;;;3.50;1.83;;;6.70;99.90;;;;;;5064224;28;20094;-78
2020/12/01 10:51:35;;;;;;;4.55;2.22;;;6.80;99.90;;;;;;5063754;28;20733;-79
2020/12/01 10:54:02;;;;;;;5.05;2.50;;;6.70;99.90;;;;;;5063734;28;20025;-80
2020/12/01 10:56:28;;;;;;;4.20;2.53;;;6.70;99.90;;;;;;5064271;28;20025;-78
2020/12/01 10:58:53;;;;;;;5.18;3.08;;;6.70;99.90;;;;;;5064597;28;20025;-80
2020/12/01 11:01:19;;;;;;;7.13;2.55;;;6.70;99.90;;;;;;5065497;28;20116;-79
2020/12/01 11:03:45;;;;;;;4.45;2.65;;;6.70;99.90;;;;;;5063247;28;20485;-77
2020/12/01 11:06:10;;;;;;;4.22;2.75;;;6.80;99.90;;;;;;5064385;28;20024;-80
2020/12/01 11:08:37;;;;;;;3.33;1.77;;;6.70;99.90;;;;;;5065763;28;20052;-78
2020/12/01 11:11:03;;;;;;;4.13;1.77;;;6.70;99.90;;;;;;5064550;28;20025;-80
2020/12/01 11:13:29;;;;;;;2.65;1.42;;;6.70;99.90;;;;;;5064032;28;20040;-77
2020/12/01 11:15:55;;;;;;;4.35;1.52;;;6.70;99.90;;;;;;5065455;28;20401;-79
2020/12/01 11:18:21;;;;;;;4.65;2.30;;;6.70;99.90;;;;;;5064594;28;20033;-79
2020/12/01 11:20:46;;;;;;;2.72;1.42;;;6.70;99.90;;;;;;5064389;28;20047;-78
2020/12/01 11:23:12;;;;;;;4.40;1.95;;;6.70;99.90;;;;;;5063820;28;20037;-79
2020/12/01 11:25:38;;;;;;;4.13;2.25;;;6.70;99.90;;;;;;5065097;28;20027;-77
2020/12/01 11:28:25;;;;;;;2.80;1.70;;;6.70;99.90;;;;;;5061501;28;20028;-80
2020/12/01 11:30:51;;;;;;;4.03;1.67;;;6.70;99.90;;;;;;5060148;28;20136;-79
2020/12/01 11:33:16;;;;;;;7.95;2.05;;;6.70;99.90;;;;;;5062741;28;20096;-77
2020/12/01 11:35:42;;;;;;;2.78;1.90;;;6.70;99.90;;;;;;5062735;28;20021;-78
2020/12/01 11:38:08;;;;;;;5.22;2.50;;;6.70;99.90;;;;;;5049205;28;20017;-78
2020/12/01 11:40:34;;;;;;;9.00;3.05;;;6.70;99.90;;;;;;5044669;28;20024;-80
2020/12/01 11:42:59;;;;;;;3.35;2.22;;;6.70;99.90;;;;;;5044755;28;20128;-79
2020/12/01 11:45:26;;;;;;;4.45;3.03;;;6.70;99.90;;;;;;5044942;28;20028;-75
2020/12/01 11:47:52;;;;;;;5.43;2.83;;;6.70;99.90;;;;;;5046226;28;20026;-77
2020/12/01 11:50:18;;;;;;;8.77;3.70;;;6.80;99.90;;;;;;5045269;28;20021;-76
2020/12/01 11:52:44;;;;;;;3.83;2.38;;;6.80;99.90;;;;;;5043589;28;20717;-80
2020/12/01 11:55:10;;;;;;;4.22;2.72;;;6.70;99.90;;;;;;5045555;28;20028;-80
2020/12/01 11:57:38;;;;;;;4.18;2.45;;;6.70;99.90;;;;;;5046586;28;20022;-79
2020/12/01 12:00:08;;;;;;;4.60;2.47;;;6.70;99.90;;;;;;5047021;28;20029;-80
2020/12/01 12:02:34;;;;;;;10.38;3.30;;;6.70;99.90;;;;;;5044250;28;20081;-80
2020/12/01 12:05:00;;;;;;;5.72;2.95;;;6.60;99.90;;;;;;5045614;28;20029;-78
2020/12/01 12:07:26;;;;;;;5.57;3.10;;;6.60;99.90;;;;;;5044069;28;20022;-80
2020/12/01 12:09:51;;;;;;;4.35;2.75;;;6.60;99.90;;;;;;5044262;28;20022;-77
2020/12/01 12:12:17;;;;;;;4.63;2.30;;;6.60;99.90;;;;;;5045467;28;20017;-78
2020/12/01 12:14:47;;;;;;;8.30;3.50;;;6.60;99.90;;;;;;5043619;28;20457;-78
2020/12/01 12:17:12;;;;;;;2.70;1.77;;;6.60;99.90;;;;;;5045202;28;20466;-78
2020/12/01 12:19:40;;;;;;;6.78;2.30;;;6.60;99.90;;;;;;5044549;28;20018;-78
2020/12/01 12:22:06;;;;;;;4.63;2.85;;;6.60;99.90;;;;;;5045403;28;20111;-77
2020/12/01 12:24:32;;;;;;;6.43;2.88;;;6.50;99.90;;;;;;5045168;28;20119;-78
2020/12/01 12:26:58;;;;;;;8.38;2.90;;;6.60;99.90;;;;;;5045202;28;20471;-77
2020/12/01 12:29:23;;;;;;;8.25;3.38;;;6.60;99.90;;;;;;5045688;28;20021;-81
2020/12/01 12:31:49;;;;;;;5.68;2.67;;;6.50;99.90;;;;;;5061606;28;20043;-79
2020/12/01 12:34:14;;;;;;;5.00;2.60;;;6.50;99.90;;;;;;5063788;28;20016;-77
2020/12/01 12:36:40;;;;;;;6.47;3.42;;;6.50;99.90;;;;;;5064484;28;20021;-79
2020/12/01 12:39:08;;;;;;;5.93;2.33;;;6.50;99.90;;;;;;5061780;28;20029;-78
2020/12/01 12:41:34;;;;;;;5.80;3.10;;;6.50;99.90;;;;;;5044480;28;20029;-79
2020/12/01 12:44:03;;;;;;;9.55;3.45;;;6.50;99.90;;;;;;5044473;28;20058;-78
2020/12/01 12:46:37;;;;;;;3.35;1.80;;;6.50;99.90;;;;;;5043927;28;20025;-77
2020/12/01 12:49:04;;;;;;;7.57;3.17;;;6.40;99.90;;;;;;5048795;28;20024;-76
2020/12/01 12:51:30;;;;;;;9.70;3.53;;;6.40;99.90;;;;;;5063607;28;20025;-75
2020/12/01 12:53:55;;;;;;;6.30;3.17;;;6.30;99.90;;;;;;5063752;28;20025;-78
2020/12/01 12:56:23;;;;;;;5.72;3.15;;;6.40;99.90;;;;;;5062775;28;20078;-77
2020/12/01 12:58:51;;;;;;;6.45;3.13;;;6.30;99.90;;;;;;5063370;28;20033;-78
2020/12/01 13:01:17;;;;;;;6.30;2.67;;;6.30;99.90;;;;;;5064983;28;20021;-77
2020/12/01 13:03:43;;;;;;;7.68;3.92;;;6.30;99.90;;;;;;5066354;28;20122;-78
2020/12/01 13:06:08;;;;;;;7.20;3.47;;;6.30;99.90;;;;;;5066306;28;20032;-79
2020/12/01 13:08:34;;;;;;;9.63;3.78;;;6.30;99.90;;;;;;5066603;28;20111;-77
2020/12/01 13:11:05;;;;;;;7.47;4.13;;;6.30;99.90;;;;;;5066142;28;20025;-77
2020/12/01 13:13:33;;;;;;;5.68;3.33;;;6.30;99.90;;;;;;5061996;28;20029;-80
2020/12/01 13:16:22;;;;;;;13.77;3.80;;;6.20;99.90;;;;;;5064729;28;20025;-81
2020/12/01 13:18:48;;;;;;;8.43;4.03;;;6.30;99.90;;;;;;5066851;28;20017;-78
2020/12/01 13:21:13;;;;;;;12.57;4.00;;;6.30;99.90;;;;;;5064808;28;20031;-79
2020/12/01 13:23:39;;;;;;;5.60;3.38;;;6.30;99.90;;;;;;5066787;28;20024;-80
2020/12/01 13:26:05;;;;;;;8.85;4.40;;;6.30;99.90;;;;;;5067405;28;20047;-80
2020/12/01 13:28:31;;;;;;;7.10;3.70;;;6.30;99.90;;;;;;5068083;28;20021;-81
2020/12/01 13:30:57;;;;;;;6.40;3.55;;;6.40;99.90;;;;;;5067796;28;20028;-77
2020/12/01 13:33:22;;;;;;;7.13;4.53;;;6.40;99.90;;;;;;5067942;28;20033;-77
2020/12/01 13:35:48;;;;;;;9.20;3.80;;;6.30;99.90;;;;;;5066980;28;20046;-76
2020/12/01 13:38:14;;;;;;;11.18;4.03;;;6.40;99.90;;;;;;5066046;28;20479;-77
2020/12/01 13:40:41;;;;;;;8.77;4.45;;;6.30;99.90;;;;;;5065844;28;20440;-78
2020/12/01 13:43:06;;;;;;;9.88;3.97;;;6.30;99.90;;;;;;5066773;28;20041;-77
2020/12/01 13:45:32;;;;;;;8.30;4.80;;;6.20;99.90;;;;;;5067547;28;20017;-79
2020/12/01 13:48:07;;;;;;;12.00;4.53;;;6.20;99.90;;;;;;5065369;28;20018;-78
2020/12/01 13:50:33;;;;;;;8.85;3.70;;;6.20;99.90;;;;;;5066692;28;20025;-79
2020/12/01 13:52:58;;;;;;;13.18;4.75;;;6.20;99.90;;;;;;5064748;28;20047;-78
2020/12/01 13:55:24;;;;;;;10.45;5.20;;;6.20;99.90;;;;;;5066039;28;20017;-77
2020/12/01 13:57:50;;;;;;;9.27;4.38;;;6.30;99.90;;;;;;5066945;28;20028;-77